CDT,Max TemperatureF,Mean TemperatureF,Min TemperatureF,Max Dew PointF,MeanDew PointF,Min DewpointF,Max Humidity, Mean Humidity, Min Humidity, Max Sea Level PressureIn, Mean Sea Level PressureIn, Min Sea Level PressureIn, Max VisibilityMiles, Mean VisibilityMiles, Min VisibilityMiles, Max Wind SpeedMPH, Mean Wind SpeedMPH, Max Gust SpeedMPH,PrecipitationIn, CloudCover, Events, WindDirDegrees
2012-9-1,93,76,60,64,58,52,77,54,34,30.06,30.00,29.91,10,10,10,14,7,21,0.00,0,,116
2012-9-2,96,81,66,64,62,55,88,56,28,29.95,29.89,29.79,10,10,7,20,11,24,0.00,0,,167
2012-9-3,89,76,64,64,60,55,77,58,31,29.93,29.89,29.82,10,10,10,16,8,22,0.00,0,,110
2012-9-4,98,80,62,66,59,46,88,56,21,29.90,29.81,29.67,10,10,5,28,8,45,0.12,0,Thunderstorm,99
2012-9-5,78,68,59,57,49,37,88,55,23,29.97,29.91,29.75,10,10,10,18,9,24,0.12,0,,329
2012-9-6,89,68,48,52,47,41,93,49,22,29.99,29.88,29.73,10,10,1,23,6,32,0.00,0,,107
2012-9-7,71,62,53,54,46,39,82,52,31,30.15,30.04,29.82,10,10,9,23,15,31,0.00,1,,329
2012-9-8,86,65,44,46,39,28,82,45,18,30.16,30.08,29.95,10,10,10,26,10,33,0.00,0,,290
2012-9-9,75,58,42,45,39,36,76,49,25,30.27,30.17,30.07,10,10,10,12,7,16,0.00,0,,209
2012-9-10,91,74,57,48,45,43,63,38,18,30.06,29.89,29.75,10,10,10,29,15,39,0.00,0,,168
2012-9-11,96,82,69,48,45,41,40,28,18,29.89,29.76,29.72,10,10,10,24,17,30,0.00,0,,197
2012-9-12,69,61,53,54,44,34,100,63,27,30.30,30.17,29.90,10,10,9,22,13,30,0.02,3,,5
2012-9-13,75,60,44,54,43,30,100,61,19,30.40,30.33,30.28,10,8,0,16,5,22,0.00,1,,215
2012-9-14,80,66,53,43,39,36,63,38,20,30.30,30.25,30.19,10,10,10,18,10,25,0.00,0,,243
2012-9-15,84,70,55,46,39,36,63,35,19,30.19,30.10,30.00,10,10,10,22,11,30,0.00,0,,183
2012-9-16,86,70,55,57,52,43,100,57,27,30.00,29.93,29.84,10,10,7,16,9,26,0.00,0,,188
2012-9-17,66,55,44,46,39,34,77,54,30,30.10,30.05,29.95,10,10,10,20,13,28,0.02,2,,346
2012-9-18,73,54,35,43,35,28,93,53,20,30.10,30.00,29.82,10,10,9,12,6,,0.00,0,,196
2012-9-19,77,65,53,45,36,25,67,36,18,30.01,29.86,29.74,10,10,10,32,13,39,0.00,0,,280
2012-9-20,69,58,48,32,27,23,41,29,20,30.06,29.99,29.89,10,10,9,12,7,16,0.00,2,,296
2012-9-21,73,63,53,37,33,28,51,33,19,30.01,29.89,29.80,10,10,10,26,13,36,0.00,0,,294
2012-9-22,60,46,33,32,25,19,65,43,20,30.33,30.24,30.02,10,10,10,15,10,24,0.00,0,,325
2012-9-23,68,49,30,30,26,19,75,42,21,30.36,30.26,30.15,10,10,10,12,4,,0.00,0,,106
2012-9-24,78,62,46,46,37,28,63,39,24,30.14,29.95,29.82,10,10,10,14,7,18,0.00,0,,201
2012-9-25,82,63,44,46,40,34,93,51,17,29.95,29.87,29.83,10,10,5,13,2,,0.00,0,,350
2012-9-26,73,58,44,36,32,21,62,37,23,30.18,30.09,29.96,10,10,10,12,6,16,0.00,0,,45
2012-9-27,75,56,37,34,28,21,65,35,18,30.23,30.18,30.12,10,10,9,10,3,,0.00,0,,81
2012-9-28,77,58,39,36,27,19,71,39,12,30.21,30.17,30.11,10,10,9,10,2,,0.00,0,,84
2012-9-29,,,,,,,,,,,,,,,,,,,,,,
2012-9-30,,,,,,,,,,,,,,,,,,,,,,